Time,TemperatureF,DewpointF,PressureIn,WindDirection,WindDirectionDegrees,WindSpeedMPH,WindSpeedGustMPH,Humidity,HourlyPrecipIn,Conditions,Clouds,dailyrainin,SoftwareType,DateUTC
2013-08-02 00:03:00,70.5,66.0,29.83,SE,142,0.0,-999.0,85,-99.99,,,0.00,weatherlink.com 1.10,2013-08-02 05:03:00,
2013-08-02 00:18:00,70.9,66.0,29.84,SSE,159,4.0,-999.0,84,-99.99,,,0.00,weatherlink.com 1.10,2013-08-02 05:18:00,
2013-08-02 00:33:00,71.0,66.0,29.83,East,101,0.0,-999.0,84,-99.99,,,0.00,weatherlink.com 1.10,2013-08-02 05:33:00,
2013-08-02 00:48:00,71.0,66.0,29.84,SE,136,1.0,-999.0,83,-99.99,,,0.00,weatherlink.com 1.10,2013-08-02 05:48:00,
2013-08-02 01:03:00,70.9,65.0,29.83,SSE,152,0.0,-999.0,82,-99.99,,,0.00,weatherlink.com 1.10,2013-08-02 06:03:00,
2013-08-02 01:18:00,71.1,65.0,29.84,SW,223,0.0,-999.0,80,-99.99,,,0.00,weatherlink.com 1.10,2013-08-02 06:18:00,
2013-08-02 01:33:00,71.5,65.0,29.85,SE,135,0.0,-999.0,80,-99.99,,,0.00,weatherlink.com 1.10,2013-08-02 06:33:00,
2013-08-02 01:48:00,71.7,65.0,29.86,South,187,3.0,-999.0,80,-99.99,,,0.00,weatherlink.com 1.10,2013-08-02 06:48:00,
2013-08-02 02:03:00,71.9,65.0,29.87,ESE,119,2.0,-999.0,80,-99.99,,,0.00,weatherlink.com 1.10,2013-08-02 07:03:00,
2013-08-02 02:18:00,71.8,66.0,29.87,SSW,194,0.0,-999.0,81,-99.99,,,0.00,weatherlink.com 1.10,2013-08-02 07:18:00,
2013-08-02 02:33:00,71.5,65.0,29.86,SSE,158,3.0,-999.0,81,-99.99,,,0.00,weatherlink.com 1.10,2013-08-02 07:33:00,
2013-08-02 02:48:00,71.4,65.0,29.87,SSE,159,0.0,-999.0,81,-99.99,,,0.00,weatherlink.com 1.10,2013-08-02 07:48:00,
2013-08-02 03:03:00,71.1,65.0,29.86,SSE,161,0.0,-999.0,82,-99.99,,,0.00,weatherlink.com 1.10,2013-08-02 08:03:00,
2013-08-02 03:18:00,70.7,66.0,29.86,SSW,206,0.0,-999.0,84,-99.99,,,0.00,weatherlink.com 1.10,2013-08-02 08:18:00,
2013-08-02 03:33:00,70.4,66.0,29.84,SW,225,6.0,-999.0,85,-99.99,,,0.00,weatherlink.com 1.10,2013-08-02 08:33:00,
2013-08-02 03:48:00,70.2,66.0,29.83,South,178,3.0,-999.0,86,-99.99,,,0.00,weatherlink.com 1.10,2013-08-02 08:48:00,
2013-08-02 04:03:00,69.9,66.0,29.78,SSE,148,4.0,-999.0,87,-99.99,,,0.00,weatherlink.com 1.10,2013-08-02 09:03:00,
2013-08-02 04:19:00,69.6,66.0,29.79,SE,144,3.0,-999.0,88,-99.99,,,0.00,weatherlink.com 1.10,2013-08-02 09:19:00,
2013-08-02 04:34:00,69.5,66.0,29.83,NW,323,0.0,-999.0,89,-99.99,,,0.00,weatherlink.com 1.10,2013-08-02 09:34:00,
2013-08-02 04:49:00,69.6,67.0,29.83,NW,323,0.0,-999.0,90,-99.99,,,0.00,weatherlink.com 1.10,2013-08-02 09:49:00,
2013-08-02 05:04:00,69.5,67.0,29.83,NW,323,0.0,-999.0,90,-99.99,,,0.00,weatherlink.com 1.10,2013-08-02 10:04:00,
2013-08-02 05:19:00,69.5,67.0,29.84,NW,323,0.0,-999.0,90,-99.99,,,0.00,weatherlink.com 1.10,2013-08-02 10:19:00,
2013-08-02 05:34:00,69.2,66.0,29.84,NW,323,0.0,-999.0,90,-99.99,,,0.00,weatherlink.com 1.10,2013-08-02 10:34:00,
2013-08-02 05:49:00,68.6,66.0,29.83,NW,323,0.0,-999.0,90,-99.99,,,0.00,weatherlink.com 1.10,2013-08-02 10:49:00,
2013-08-02 06:04:00,68.1,65.0,29.83,NW,323,0.0,-999.0,91,-99.99,,,0.00,weatherlink.com 1.10,2013-08-02 11:04:00,
2013-08-02 06:19:00,67.8,66.0,29.84,NW,323,0.0,-999.0,92,-99.99,,,0.00,weatherlink.com 1.10,2013-08-02 11:19:00,
2013-08-02 06:34:00,67.6,66.0,29.83,NW,323,0.0,-999.0,93,-99.99,,,0.00,weatherlink.com 1.10,2013-08-02 11:34:00,
2013-08-02 06:49:00,67.5,66.0,29.83,NW,323,0.0,-999.0,93,-99.99,,,0.00,weatherlink.com 1.10,2013-08-02 11:49:00,
2013-08-02 07:04:00,67.6,66.0,29.82,NW,320,0.0,-999.0,93,-99.99,,,0.00,weatherlink.com 1.10,2013-08-02 12:04:00,
2013-08-02 07:19:00,67.8,66.0,29.82,NW,320,0.0,-999.0,95,-99.99,,,0.00,weatherlink.com 1.10,2013-08-02 12:19:00,
2013-08-02 07:34:00,69.4,68.0,29.82,NW,320,0.0,-999.0,95,-99.99,,,0.00,weatherlink.com 1.10,2013-08-02 12:34:00,
2013-08-02 07:49:00,72.3,69.0,29.83,NNE,22,0.0,-999.0,90,-99.99,,,0.00,weatherlink.com 1.10,2013-08-02 12:49:00,
2013-08-02 08:04:00,75.3,70.0,29.83,ENE,64,0.0,-999.0,84,-99.99,,,0.00,weatherlink.com 1.10,2013-08-02 13:04:00,
2013-08-02 08:19:00,77.6,71.0,29.83,SE,128,0.0,-999.0,80,-99.99,,,0.00,weatherlink.com 1.10,2013-08-02 13:19:00,
2013-08-02 08:34:00,78.8,71.0,29.84,NE,50,0.0,-999.0,77,-99.99,,,0.00,weatherlink.com 1.10,2013-08-02 13:34:00,
2013-08-02 08:49:00,79.3,70.0,29.84,NE,40,2.0,-999.0,74,-99.99,,,0.00,weatherlink.com 1.10,2013-08-02 13:49:00,
2013-08-02 09:04:00,79.6,70.0,29.83,ENE,60,1.0,-999.0,73,-99.99,,,0.00,weatherlink.com 1.10,2013-08-02 14:04:00,
2013-08-02 09:19:00,79.9,71.0,29.84,NE,41,0.0,-999.0,74,-99.99,,,0.00,weatherlink.com 1.10,2013-08-02 14:19:00,
2013-08-02 09:34:00,80.7,71.0,29.84,ENE,67,0.0,-999.0,72,-99.99,,,0.00,weatherlink.com 1.10,2013-08-02 14:34:00,
2013-08-02 09:49:00,81.9,72.0,29.84,NE,45,0.0,-999.0,71,-99.99,,,0.00,weatherlink.com 1.10,2013-08-02 14:49:00,
2013-08-02 10:04:00,83.4,72.0,29.84,SE,134,4.0,-999.0,68,-99.99,,,0.00,weatherlink.com 1.10,2013-08-02 15:04:00,
2013-08-02 10:19:00,85.2,72.0,29.85,ESE,115,3.0,-999.0,65,-99.99,,,0.00,weatherlink.com 1.10,2013-08-02 15:19:00,
2013-08-02 10:34:00,85.7,72.0,29.85,ESE,113,3.0,-999.0,63,-99.99,,,0.00,weatherlink.com 1.10,2013-08-02 15:34:00,
2013-08-02 10:49:00,86.0,72.0,29.85,ESE,117,0.0,-999.0,63,-99.99,,,0.00,weatherlink.com 1.10,2013-08-02 15:49:00,
2013-08-02 11:04:00,85.4,70.0,29.86,West,273,0.0,-999.0,61,-99.99,,,0.00,weatherlink.com 1.10,2013-08-02 16:04:00,
2013-08-02 11:19:00,84.9,70.0,29.87,NNW,342,2.0,-999.0,62,-99.99,,,0.00,weatherlink.com 1.10,2013-08-02 16:19:00,
2013-08-02 11:34:00,84.9,71.0,29.86,ENE,67,2.0,-999.0,63,-99.99,,,0.00,weatherlink.com 1.10,2013-08-02 16:34:00,
2013-08-02 11:50:00,85.0,70.0,29.86,ESE,111,0.0,-999.0,61,-99.99,,,0.00,weatherlink.com 1.10,2013-08-02 16:50:00,
2013-08-02 12:05:00,84.9,71.0,29.86,ESE,111,3.0,-999.0,63,-99.99,,,0.00,weatherlink.com 1.10,2013-08-02 17:05:00,
2013-08-02 12:20:00,83.8,69.0,29.86,SE,130,0.0,-999.0,61,-99.99,,,0.00,weatherlink.com 1.10,2013-08-02 17:20:00,
2013-08-02 12:35:00,83.8,68.0,29.86,SE,131,3.0,-999.0,60,-99.99,,,0.00,weatherlink.com 1.10,2013-08-02 17:35:00,
2013-08-02 12:50:00,83.1,69.0,29.87,SE,144,2.0,-999.0,63,-99.99,,,0.00,weatherlink.com 1.10,2013-08-02 17:50:00,
2013-08-02 13:05:00,82.6,70.0,29.87,SE,144,2.0,-999.0,65,-99.99,,,0.00,weatherlink.com 1.10,2013-08-02 18:05:00,
2013-08-02 13:20:00,82.7,70.0,29.87,SE,144,0.0,-999.0,65,-99.99,,,0.00,weatherlink.com 1.10,2013-08-02 18:20:00,
2013-08-02 13:35:00,83.6,69.0,29.87,SE,144,4.0,-999.0,62,-99.99,,,0.00,weatherlink.com 1.10,2013-08-02 18:35:00,
2013-08-02 13:50:00,84.1,71.0,29.86,SSE,157,0.0,-999.0,64,-99.99,,,0.00,weatherlink.com 1.10,2013-08-02 18:50:00,
2013-08-02 14:05:00,85.5,70.0,29.86,SSE,153,1.0,-999.0,61,-99.99,,,0.00,weatherlink.com 1.10,2013-08-02 19:05:00,
2013-08-02 14:20:00,87.1,72.0,29.86,ENE,67,2.0,-999.0,61,-99.99,,,0.00,weatherlink.com 1.10,2013-08-02 19:20:00,
2013-08-02 14:35:00,88.1,70.0,29.85,ESE,121,1.0,-999.0,56,-99.99,,,0.00,weatherlink.com 1.10,2013-08-02 19:35:00,
2013-08-02 14:50:00,87.7,71.0,29.84,ENE,63,0.0,-999.0,58,-99.99,,,0.00,weatherlink.com 1.10,2013-08-02 19:50:00,
2013-08-02 15:05:00,88.5,70.0,29.84,ESE,104,0.0,-999.0,54,-99.99,,,0.00,weatherlink.com 1.10,2013-08-02 20:05:00,
2013-08-02 15:20:00,88.9,71.0,29.83,ESE,104,2.0,-999.0,55,-99.99,,,0.00,weatherlink.com 1.10,2013-08-02 20:20:00,
2013-08-02 15:35:00,89.5,72.0,29.84,SE,131,0.0,-999.0,56,-99.99,,,0.00,weatherlink.com 1.10,2013-08-02 20:35:00,
2013-08-02 15:50:00,89.7,71.0,29.84,NNE,30,5.0,-999.0,55,-99.99,,,0.00,weatherlink.com 1.10,2013-08-02 20:50:00,
2013-08-02 16:05:00,88.8,71.0,29.84,SE,136,1.0,-999.0,56,-99.99,,,0.00,weatherlink.com 1.10,2013-08-02 21:05:00,
2013-08-02 16:20:00,89.1,71.0,29.84,ESE,111,1.0,-999.0,56,-99.99,,,0.00,weatherlink.com 1.10,2013-08-02 21:20:00,
2013-08-02 16:35:00,88.4,72.0,29.85,NE,52,0.0,-999.0,58,-99.99,,,0.00,weatherlink.com 1.10,2013-08-02 21:35:00,
2013-08-02 16:50:00,86.8,71.0,29.85,NNE,24,2.0,-999.0,59,-99.99,,,0.00,weatherlink.com 1.10,2013-08-02 21:50:00,
2013-08-02 17:05:00,84.7,70.0,29.85,NNE,32,1.0,-999.0,62,-99.99,,,0.00,weatherlink.com 1.10,2013-08-02 22:05:00,
2013-08-02 17:20:00,84.4,72.0,29.85,East,82,2.0,-999.0,66,-99.99,,,0.00,weatherlink.com 1.10,2013-08-02 22:20:00,
2013-08-02 17:35:00,84.1,71.0,29.86,East,92,1.0,-999.0,65,-99.99,,,0.00,weatherlink.com 1.10,2013-08-02 22:35:00,
2013-08-02 17:50:00,82.9,70.0,29.86,North,360,5.0,-999.0,66,-99.99,,,0.00,weatherlink.com 1.10,2013-08-02 22:50:00,
2013-08-02 18:05:00,82.1,69.0,29.84,ENE,61,3.0,-999.0,65,-99.99,,,0.00,weatherlink.com 1.10,2013-08-02 23:05:00,
2013-08-02 18:20:00,82.9,69.0,29.83,NE,42,3.0,-999.0,64,-99.99,,,0.00,weatherlink.com 1.10,2013-08-02 23:20:00,
2013-08-02 18:35:00,83.4,70.0,29.84,ENE,62,5.0,-999.0,65,-99.99,,,0.00,weatherlink.com 1.10,2013-08-02 23:35:00,
2013-08-02 18:50:00,83.2,70.0,29.84,East,98,1.0,-999.0,64,-99.99,,,0.00,weatherlink.com 1.10,2013-08-02 23:50:00,
2013-08-02 19:05:00,83.1,71.0,29.85,East,98,0.0,-999.0,66,-99.99,,,0.00,weatherlink.com 1.10,2013-08-03 00:05:00,
2013-08-02 19:20:00,83.0,71.0,29.85,ESE,105,2.0,-999.0,67,-99.99,,,0.00,weatherlink.com 1.10,2013-08-03 00:20:00,
2013-08-02 19:35:00,81.9,70.0,29.85,NE,38,3.0,-999.0,67,-99.99,,,0.00,weatherlink.com 1.10,2013-08-03 00:35:00,
2013-08-02 19:50:00,80.4,69.0,29.86,NE,38,1.0,-999.0,69,-99.99,,,0.00,weatherlink.com 1.10,2013-08-03 00:50:00,
2013-08-02 20:05:00,79.5,69.0,29.86,NE,47,0.0,-999.0,70,-99.99,,,0.00,weatherlink.com 1.10,2013-08-03 01:05:00,
2013-08-02 20:20:00,78.4,68.0,29.86,SE,130,0.0,-999.0,70,-99.99,,,0.00,weatherlink.com 1.10,2013-08-03 01:20:00,
2013-08-02 20:35:00,77.0,67.0,29.88,North,360,4.0,-999.0,71,-99.99,,,0.00,weatherlink.com 1.10,2013-08-03 01:35:00,
2013-08-02 20:50:00,75.7,66.0,29.89,North,355,4.0,-999.0,71,-99.99,,,0.00,weatherlink.com 1.10,2013-08-03 01:50:00,
2013-08-02 21:05:00,74.8,66.0,29.90,NNE,32,3.0,-999.0,73,-99.99,,,0.00,weatherlink.com 1.10,2013-08-03 02:05:00,
2013-08-02 21:20:00,73.9,65.0,29.91,NNE,19,0.0,-999.0,74,-99.99,,,0.00,weatherlink.com 1.10,2013-08-03 02:20:00,
2013-08-02 21:35:00,73.2,64.0,29.92,North,360,6.0,-999.0,74,-99.99,,,0.00,weatherlink.com 1.10,2013-08-03 02:35:00,
2013-08-02 21:50:00,72.4,64.0,29.93,NNE,17,3.0,-999.0,75,-99.99,,,0.00,weatherlink.com 1.10,2013-08-03 02:50:00,
2013-08-02 22:05:00,71.6,63.0,29.93,NNE,31,6.0,-999.0,75,-99.99,,,0.00,weatherlink.com 1.10,2013-08-03 03:05:00,
2013-08-02 22:21:00,70.7,63.0,29.94,NE,47,4.0,-999.0,76,-99.99,,,0.00,weatherlink.com 1.10,2013-08-03 03:21:00,
2013-08-02 22:36:00,70.0,62.0,29.95,NE,36,5.0,-999.0,76,-99.99,,,0.00,weatherlink.com 1.10,2013-08-03 03:36:00,
2013-08-02 22:51:00,69.4,62.0,29.95,NE,44,4.0,-999.0,77,-99.99,,,0.00,weatherlink.com 1.10,2013-08-03 03:51:00,
2013-08-02 23:06:00,68.9,61.0,29.95,NNE,32,3.0,-999.0,77,-99.99,,,0.00,weatherlink.com 1.10,2013-08-03 04:06:00,
2013-08-02 23:21:00,68.4,61.0,29.95,North,360,0.0,-999.0,77,-99.99,,,0.00,weatherlink.com 1.10,2013-08-03 04:21:00,
2013-08-02 23:36:00,68.2,61.0,29.95,NNE,15,0.0,-999.0,78,-99.99,,,0.00,weatherlink.com 1.10,2013-08-03 04:36:00,
2013-08-02 23:51:00,67.9,62.0,29.96,NNE,27,1.0,-999.0,80,-99.99,,,0.00,weatherlink.com 1.10,2013-08-03 04:51:00,